createdAt,value
2022-09-12T00:02:46.239Z,13.48
2022-09-12T00:06:13.538Z,13.48
2022-09-12T00:09:35.227Z,13.45
2022-09-12T00:12:56.782Z,13.44
2022-09-12T00:16:20.446Z,13.40
2022-09-12T00:19:43.329Z,13.34
2022-09-12T00:23:04.655Z,13.31
2022-09-12T00:26:26.832Z,13.27
2022-09-12T00:29:48.448Z,13.24
2022-09-12T00:33:10.562Z,13.20
2022-09-12T00:36:33.461Z,13.13
2022-09-12T00:39:55.278Z,13.09
2022-09-12T00:43:36.806Z,13.05
2022-09-12T00:47:02.067Z,13.02
2022-09-12T00:50:23.564Z,13.00
2022-09-12T00:53:49.735Z,12.97
2022-09-12T00:57:14.697Z,12.93
2022-09-12T01:00:36.277Z,12.90
2022-09-12T01:03:58.290Z,12.88
2022-09-12T01:07:20.817Z,12.85
2022-09-12T01:10:43.970Z,12.82
2022-09-12T01:14:05.936Z,12.79
2022-09-12T01:17:33.714Z,12.76
2022-09-12T01:21:12.046Z,12.72
2022-09-12T01:25:00.715Z,12.71
2022-09-12T01:28:49.912Z,12.71
2022-09-12T01:32:19.561Z,12.71
2022-09-12T01:35:49.121Z,12.71
2022-09-12T01:39:20.277Z,12.69
2022-09-12T01:42:52.928Z,12.70
2022-09-12T01:46:18.517Z,12.73
2022-09-12T01:49:48.596Z,12.76
2022-09-12T01:53:15.699Z,12.79
2022-09-12T01:56:41.332Z,12.82
2022-09-12T02:00:07.319Z,12.86
2022-09-12T02:03:41.702Z,12.91
2022-09-12T02:07:11.958Z,12.94
2022-09-12T02:10:41.453Z,12.97
2022-09-12T02:14:07.818Z,12.98
2022-09-12T02:17:31.922Z,12.99
2022-09-12T02:20:54.448Z,13.01
2022-09-12T02:24:19.104Z,13.02
2022-09-12T02:27:45.857Z,13.01
2022-09-12T02:31:15.326Z,13.03
2022-09-12T02:34:49.420Z,13.04
2022-09-12T02:38:15.786Z,13.04
2022-09-12T02:41:39.306Z,13.04
2022-09-12T02:45:01.143Z,13.04
2022-09-12T02:48:28.292Z,13.07
2022-09-12T02:51:50.654Z,13.09
2022-09-12T02:55:13.030Z,13.09
2022-09-12T02:58:36.403Z,13.08
2022-09-12T03:02:13.404Z,13.09
2022-09-12T03:05:38.977Z,13.12
2022-09-12T03:09:11.543Z,13.13
2022-09-12T03:12:46.694Z,13.12
2022-09-12T03:16:19.211Z,13.11
2022-09-12T03:19:53.762Z,13.09
2022-09-12T03:23:25.024Z,13.05
2022-09-12T03:26:51.174Z,13.05
2022-09-12T03:30:13.735Z,13.02
2022-09-12T03:33:36.855Z,12.99
2022-09-12T03:36:58.794Z,12.97
2022-09-12T03:40:20.819Z,12.97
2022-09-12T03:43:42.820Z,12.95
2022-09-12T03:47:08.096Z,12.93
2022-09-12T03:50:34.952Z,12.93
2022-09-12T03:53:56.981Z,12.91
2022-09-12T03:57:19.149Z,12.89
2022-09-12T04:00:42.819Z,12.84
2022-09-12T04:04:04.463Z,12.81
2022-09-12T04:07:27.666Z,12.81
2022-09-12T04:10:49.352Z,12.78
2022-09-12T04:14:10.930Z,12.77
2022-09-12T04:17:32.663Z,12.73
2022-09-12T04:20:54.636Z,12.70
2022-09-12T04:24:17.581Z,12.67
2022-09-12T04:27:39.182Z,12.64
2022-09-12T04:31:03.459Z,12.63
2022-09-12T04:34:25.138Z,12.61
2022-09-12T04:37:46.902Z,12.61
2022-09-12T04:41:14.201Z,12.57
2022-09-12T04:44:35.638Z,12.57
2022-09-12T04:47:57.330Z,12.55
2022-09-12T04:51:22.090Z,12.53
2022-09-12T04:54:43.952Z,12.52
2022-09-12T04:58:06.733Z,12.55
2022-09-12T05:01:30.082Z,12.54
2022-09-12T05:04:52.628Z,12.56
2022-09-12T05:08:14.576Z,12.56
2022-09-12T05:12:03.837Z,12.57
2022-09-12T05:15:23.227Z,12.60
2022-09-12T05:18:46.768Z,12.61
2022-09-12T05:22:09.767Z,12.62
2022-09-12T05:25:31.858Z,12.59
2022-09-12T05:28:53.891Z,12.62
2022-09-12T05:32:17.032Z,12.56
2022-09-12T05:35:39.091Z,12.54
2022-09-12T05:39:01.737Z,12.50
2022-09-12T05:42:23.504Z,12.53
2022-09-12T05:45:45.101Z,12.54
2022-09-12T05:49:11.380Z,12.57
2022-09-12T05:52:33.521Z,12.59
2022-09-12T05:56:03.683Z,12.62
2022-09-12T05:59:25.422Z,12.68
2022-09-12T06:02:53.278Z,12.71
2022-09-12T06:06:18.740Z,12.76
2022-09-12T06:09:40.497Z,12.82
2022-09-12T06:13:03.930Z,12.90
2022-09-12T06:16:28.200Z,12.95
2022-09-12T06:19:50.150Z,13.01
2022-09-12T06:23:13.744Z,13.01
2022-09-12T06:26:36.005Z,13.04
2022-09-12T06:29:58.013Z,13.09
2022-09-12T06:33:20.805Z,13.09
2022-09-12T06:36:44.390Z,13.12
2022-09-12T06:40:10.176Z,13.12
2022-09-12T06:43:32.591Z,13.12
2022-09-12T06:46:54.495Z,13.15
2022-09-12T06:50:16.389Z,13.18
2022-09-12T06:53:38.575Z,13.22
2022-09-12T06:57:02.071Z,13.26
2022-09-12T07:00:23.803Z,13.30
2022-09-12T07:03:49.949Z,13.37
2022-09-12T07:07:12.113Z,13.43
2022-09-12T07:10:34.419Z,13.55
2022-09-12T07:13:58.826Z,13.62
2022-09-12T07:17:20.442Z,13.67
2022-09-12T07:20:42.834Z,13.75
2022-09-12T07:24:04.881Z,13.83
2022-09-12T07:27:26.931Z,13.86
2022-09-12T07:30:50.333Z,13.93
2022-09-12T07:34:12.931Z,14.01
2022-09-12T07:37:34.662Z,14.07
2022-09-12T07:40:57.023Z,14.13
2022-09-12T07:44:18.928Z,14.18
2022-09-12T07:47:42.119Z,14.24
2022-09-12T07:51:07.416Z,14.31
2022-09-12T07:54:28.926Z,14.38
2022-09-12T07:57:51.039Z,14.47
2022-09-12T08:01:14.403Z,14.54
2022-09-12T08:04:37.330Z,14.60
2022-09-12T08:07:59.153Z,14.71
2022-09-12T08:11:22.523Z,14.78
2022-09-12T08:14:43.970Z,14.86
2022-09-12T08:18:06.014Z,14.93
2022-09-12T08:21:31.526Z,15.01
2022-09-12T08:24:53.645Z,15.14
2022-09-12T08:28:15.535Z,15.21
2022-09-12T08:31:37.463Z,15.29
2022-09-12T08:34:59.475Z,15.38
2022-09-12T08:38:23.753Z,15.47
2022-09-12T08:41:46.826Z,15.58
2022-09-12T08:45:18.958Z,15.73
2022-09-12T08:48:42.221Z,15.80
2022-09-12T08:52:09.291Z,15.89
2022-09-12T08:55:36.022Z,16.00
2022-09-12T08:58:58.093Z,16.09
2022-09-12T09:02:51.282Z,16.21
2022-09-12T09:06:26.833Z,16.26
2022-09-12T09:10:02.062Z,16.33
2022-09-12T09:13:51.969Z,16.39
2022-09-12T09:17:20.214Z,16.53
2022-09-12T09:20:48.018Z,16.62
2022-09-12T09:24:14.141Z,16.74
2022-09-12T09:27:41.729Z,16.74
2022-09-12T09:31:05.069Z,16.82
2022-09-12T09:34:31.473Z,16.86
2022-09-12T09:38:02.795Z,16.91
2022-09-12T09:41:36.550Z,16.92
2022-09-12T09:45:01.865Z,16.94
2022-09-12T09:48:29.087Z,16.98
2022-09-12T09:51:51.022Z,17.07
2022-09-12T09:55:17.911Z,17.16
2022-09-12T09:58:41.062Z,17.26
2022-09-12T10:02:23.806Z,17.33
2022-09-12T10:05:50.030Z,17.38
2022-09-12T10:09:27.117Z,17.46
2022-09-12T10:12:48.753Z,17.54
2022-09-12T10:16:20.775Z,17.62
2022-09-12T10:19:42.526Z,17.72
2022-09-12T10:23:29.493Z,17.84
2022-09-12T10:26:57.049Z,17.91
2022-09-12T10:30:21.933Z,18.00
2022-09-12T10:33:47.329Z,18.08
2022-09-12T10:37:11.879Z,18.15
2022-09-12T10:40:40.245Z,18.23
2022-09-12T10:44:09.590Z,18.32
2022-09-12T10:47:32.694Z,18.40
2022-09-12T10:50:54.311Z,18.50
2022-09-12T10:54:18.197Z,18.57
2022-09-12T10:58:27.240Z,18.61
2022-09-12T11:02:01.084Z,18.63
2022-09-12T11:05:46.776Z,18.58
2022-09-12T11:09:14.395Z,18.57
2022-09-12T11:12:44.725Z,18.53
2022-09-12T11:16:17.147Z,18.51
2022-09-12T11:19:51.980Z,18.46
2022-09-12T11:23:33.521Z,18.35
2022-09-12T11:27:06.502Z,18.26
2022-09-12T11:30:37.463Z,18.26
2022-09-12T11:34:02.402Z,18.36
2022-09-12T11:37:43.666Z,18.45
2022-09-12T11:41:08.436Z,18.50
2022-09-12T11:44:40.271Z,18.49
2022-09-12T11:48:08.309Z,18.52
2022-09-12T11:51:36.849Z,18.52
2022-09-12T11:55:03.829Z,18.61
2022-09-12T11:58:29.238Z,18.71
2022-09-12T12:01:54.799Z,18.83
2022-09-12T12:05:21.546Z,18.89
2022-09-12T12:08:45.895Z,19.01
2022-09-12T12:12:16.686Z,19.03
2022-09-12T12:15:40.425Z,19.09
2022-09-12T12:19:08.736Z,19.11
2022-09-12T12:22:32.610Z,19.10
2022-09-12T12:25:56.095Z,19.11
2022-09-12T12:29:43.388Z,19.17
2022-09-12T12:33:46.067Z,19.22
2022-09-12T12:37:41.034Z,19.26
2022-09-12T12:41:40.630Z,19.32
2022-09-12T12:45:05.397Z,19.38
2022-09-12T12:48:27.646Z,19.42
2022-09-12T12:51:57.672Z,19.46
2022-09-12T12:55:26.382Z,19.53
2022-09-12T12:58:48.327Z,19.58
2022-09-12T13:02:22.539Z,19.60
2022-09-12T13:05:48.002Z,19.63
2022-09-12T13:09:21.864Z,19.67
2022-09-12T13:12:49.293Z,19.73
2022-09-12T13:16:12.630Z,19.77
2022-09-12T13:19:38.429Z,19.80
2022-09-12T13:23:00.478Z,19.89
2022-09-12T13:26:25.188Z,19.94
2022-09-12T13:29:47.193Z,20.02
2022-09-12T13:33:22.038Z,20.10
2022-09-12T13:37:09.847Z,20.13
2022-09-12T13:40:36.869Z,20.10
2022-09-12T13:43:59.880Z,20.00
2022-09-12T13:47:30.039Z,20.01
2022-09-12T13:50:54.870Z,20.04
2022-09-12T13:54:24.314Z,20.11
2022-09-12T13:57:46.324Z,20.15
2022-09-12T14:01:13.567Z,20.16
2022-09-12T14:04:57.410Z,20.24
2022-09-12T14:08:20.399Z,20.33
2022-09-12T14:11:44.093Z,20.43
2022-09-12T14:15:09.565Z,20.45
2022-09-12T14:18:36.489Z,20.51
2022-09-12T14:21:59.059Z,20.58
2022-09-12T14:25:23.433Z,20.56
2022-09-12T14:28:48.219Z,20.57
2022-09-12T14:32:22.642Z,20.62
2022-09-12T14:35:50.157Z,20.63
2022-09-12T14:39:25.917Z,20.63
2022-09-12T14:42:50.641Z,20.64
2022-09-12T14:46:20.805Z,20.66
2022-09-12T14:49:43.312Z,20.68
2022-09-12T14:53:07.254Z,20.65
2022-09-12T14:56:42.718Z,20.61
2022-09-12T15:00:22.232Z,20.60
2022-09-12T15:03:53.876Z,20.59
2022-09-12T15:07:16.627Z,20.57
2022-09-12T15:10:39.821Z,20.51
2022-09-12T15:14:08.274Z,20.49
2022-09-12T15:17:30.249Z,20.48
2022-09-12T15:20:56.582Z,20.48
2022-09-12T15:24:18.433Z,20.46
2022-09-12T15:27:40.857Z,20.44
2022-09-12T15:31:07.851Z,20.38
2022-09-12T15:34:29.513Z,20.34
2022-09-12T15:37:53.121Z,20.30
2022-09-12T15:41:17.018Z,20.25
2022-09-12T15:44:39.037Z,20.20
2022-09-12T15:48:01.050Z,20.16
2022-09-12T15:51:23.443Z,20.08
2022-09-12T15:54:46.370Z,20.03
2022-09-12T15:58:09.037Z,19.96
2022-09-12T16:01:30.925Z,19.89
2022-09-12T16:04:54.681Z,19.85
2022-09-12T16:08:16.286Z,19.78
2022-09-12T16:11:39.626Z,19.72
2022-09-12T16:15:02.290Z,19.64
2022-09-12T16:18:23.820Z,19.57
2022-09-12T16:21:45.593Z,19.50
2022-09-12T16:25:08.593Z,19.42
2022-09-12T16:28:33.267Z,19.34
2022-09-12T16:31:55.519Z,19.27
2022-09-12T16:35:17.343Z,19.20
2022-09-12T16:38:41.957Z,19.13
2022-09-12T16:42:04.356Z,19.08
2022-09-12T16:45:27.528Z,19.01
2022-09-12T16:48:52.723Z,18.93
2022-09-12T16:52:16.621Z,18.88
2022-09-12T16:55:38.330Z,18.83
2022-09-12T16:58:59.672Z,18.75
2022-09-12T17:02:22.363Z,18.65
2022-09-12T17:05:43.733Z,18.57
2022-09-12T17:09:06.451Z,18.49
2022-09-12T17:12:27.903Z,18.41
2022-09-12T17:15:49.698Z,18.32
2022-09-12T17:19:17.267Z,18.25
2022-09-12T17:22:38.826Z,18.16
2022-09-12T17:26:00.549Z,18.10
2022-09-12T17:29:22.398Z,18.02
2022-09-12T17:32:44.022Z,17.93
2022-09-12T17:36:09.283Z,17.85
2022-09-12T17:39:30.967Z,17.77
2022-09-12T17:42:52.748Z,17.68
2022-09-12T17:46:15.142Z,17.58
2022-09-12T17:49:37.810Z,17.52
2022-09-12T17:53:01.326Z,17.43
2022-09-12T17:56:23.627Z,17.36
2022-09-12T17:59:45.123Z,17.27
2022-09-12T18:03:05.555Z,17.19
2022-09-12T18:06:28.030Z,17.12
2022-09-12T18:09:51.831Z,17.04
2022-09-12T18:13:14.021Z,16.96
2022-09-12T18:16:36.190Z,16.89
2022-09-12T18:19:57.924Z,16.81
2022-09-12T18:23:19.643Z,16.75
2022-09-12T18:26:43.661Z,16.67
2022-09-12T18:30:20.639Z,16.59
2022-09-12T18:33:43.059Z,16.52
2022-09-12T18:37:05.347Z,16.44
2022-09-12T18:40:27.218Z,16.36
2022-09-12T18:43:54.629Z,16.29
2022-09-12T18:47:16.431Z,16.21
2022-09-12T18:50:37.707Z,16.13
2022-09-12T18:54:01.131Z,16.05
2022-09-12T18:57:23.383Z,15.99
2022-09-12T19:00:48.370Z,15.94
2022-09-12T19:04:13.074Z,15.89
2022-09-12T19:07:34.887Z,15.84
2022-09-12T19:10:57.867Z,15.77
2022-09-12T19:14:25.125Z,15.69
2022-09-12T19:17:48.442Z,15.63
2022-09-12T19:21:14.674Z,15.58
2022-09-12T19:24:36.652Z,15.52
2022-09-12T19:27:58.514Z,15.45
2022-09-12T19:31:21.730Z,15.37
2022-09-12T19:34:44.926Z,15.29
2022-09-12T19:38:06.770Z,15.23
2022-09-12T19:41:28.928Z,15.16
2022-09-12T19:44:55.606Z,15.11
2022-09-12T19:48:17.550Z,15.07
2022-09-12T19:51:41.199Z,15.03
2022-09-12T19:55:02.725Z,15.00
2022-09-12T19:58:24.674Z,14.94
2022-09-12T20:01:46.438Z,14.89
2022-09-12T20:05:09.039Z,14.84
2022-09-12T20:08:32.450Z,14.76
2022-09-12T20:11:54.065Z,14.73
2022-09-12T20:15:15.570Z,14.70
2022-09-12T20:18:37.516Z,14.64
2022-09-12T20:21:59.718Z,14.58
2022-09-12T20:25:22.654Z,14.52
2022-09-12T20:28:44.512Z,14.47
2022-09-12T20:32:06.376Z,14.42
2022-09-12T20:35:28.165Z,14.37
2022-09-12T20:38:51.614Z,14.33
2022-09-12T20:42:14.729Z,14.28
2022-09-12T20:45:41.354Z,14.24
2022-09-12T20:49:14.701Z,14.18
2022-09-12T20:52:36.866Z,14.14
2022-09-12T20:55:58.617Z,14.10
2022-09-12T20:59:21.855Z,14.05
2022-09-12T21:02:43.792Z,14.00
2022-09-12T21:06:06.356Z,13.94
2022-09-12T21:09:28.145Z,13.91
2022-09-12T21:12:50.101Z,13.88
2022-09-12T21:16:15.655Z,13.85
2022-09-12T21:19:39.354Z,13.82
2022-09-12T21:23:01.415Z,13.79
2022-09-12T21:26:22.967Z,13.75
2022-09-12T21:29:47.653Z,13.73
2022-09-12T21:33:12.761Z,13.68
2022-09-12T21:36:34.435Z,13.67
2022-09-12T21:39:56.478Z,13.63
2022-09-12T21:43:18.412Z,13.59
2022-09-12T21:46:40.501Z,13.56
2022-09-12T21:50:03.602Z,13.52
2022-09-12T21:53:25.292Z,13.48
2022-09-12T21:56:47.162Z,13.46
2022-09-12T22:00:13.053Z,13.41
2022-09-12T22:03:34.382Z,13.38
2022-09-12T22:06:57.550Z,13.36
2022-09-12T22:10:19.330Z,13.34
2022-09-12T22:13:43.743Z,13.33
2022-09-12T22:17:05.457Z,13.31
2022-09-12T22:20:27.306Z,13.26
2022-09-12T22:24:08.027Z,13.24
2022-09-12T22:27:29.529Z,13.22
2022-09-12T22:30:51.812Z,13.18
2022-09-12T22:34:13.801Z,13.12
2022-09-12T22:37:35.947Z,13.09
2022-09-12T22:41:00.207Z,13.08
2022-09-12T22:44:21.597Z,13.06
2022-09-12T22:47:42.938Z,13.01
2022-09-12T22:51:04.965Z,12.98
2022-09-12T22:54:28.026Z,12.93
2022-09-12T22:57:51.402Z,12.90
2022-09-12T23:01:13.560Z,12.87
2022-09-12T23:04:35.114Z,12.87
2022-09-12T23:07:56.929Z,12.83
2022-09-12T23:11:21.480Z,12.81
2022-09-12T23:14:44.078Z,12.79
2022-09-12T23:18:05.647Z,12.73
2022-09-12T23:21:27.086Z,12.69
2022-09-12T23:24:48.523Z,12.65
2022-09-12T23:28:10.426Z,12.63
2022-09-12T23:31:35.271Z,12.61
2022-09-12T23:34:56.898Z,12.60
2022-09-12T23:38:18.766Z,12.58
2022-09-12T23:41:40.976Z,12.55
2022-09-12T23:45:02.813Z,12.54
2022-09-12T23:48:26.698Z,12.48
2022-09-12T23:51:48.144Z,12.47
2022-09-12T23:55:10.610Z,12.43
2022-09-12T23:58:33.082Z,12.39
